sensor_id;sensor_type;location;lat;lon;timestamp;pressure;altitude;pressure_sealevel;temperature;humidity
52249;BME280;38541;48.130;8.378;2023-07-30T00:02:16;92555.41;;;17.85;74.52
52249;BME280;38541;48.130;8.378;2023-07-30T00:04:44;92549.00;;;17.86;74.45
52249;BME280;38541;48.130;8.378;2023-07-30T00:07:11;92551.66;;;17.86;74.33
52249;BME280;38541;48.130;8.378;2023-07-30T00:09:38;92551.34;;;17.79;74.59
52249;BME280;38541;48.130;8.378;2023-07-30T00:12:06;92560.25;;;17.74;74.65
52249;BME280;38541;48.130;8.378;2023-07-30T00:14:33;92560.25;;;17.65;77.23
52249;BME280;38541;48.130;8.378;2023-07-30T00:16:59;92570.41;;;17.63;77.40
52249;BME280;38541;48.130;8.378;2023-07-30T00:19:26;92566.97;;;17.72;77.47
52249;BME280;38541;48.130;8.378;2023-07-30T00:21:52;92564.44;;;17.49;76.61
52249;BME280;38541;48.130;8.378;2023-07-30T00:24:19;92556.63;;;17.44;77.74
52249;BME280;38541;48.130;8.378;2023-07-30T00:26:45;92560.38;;;17.43;77.87
52249;BME280;38541;48.130;8.378;2023-07-30T00:29:12;92571.47;;;17.45;77.59
52249;BME280;38541;48.130;8.378;2023-07-30T00:31:38;92568.03;;;17.44;77.99
52249;BME280;38541;48.130;8.378;2023-07-30T00:34:05;92571.31;;;17.50;77.57
52249;BME280;38541;48.130;8.378;2023-07-30T00:36:32;92571.94;;;17.47;77.42
52249;BME280;38541;48.130;8.378;2023-07-30T00:38:58;92578.81;;;17.48;77.38
52249;BME280;38541;48.130;8.378;2023-07-30T00:41:25;92575.50;;;17.42;77.48
52249;BME280;38541;48.130;8.378;2023-07-30T00:43:51;92573.78;;;17.37;77.82
52249;BME280;38541;48.130;8.378;2023-07-30T00:46:18;92578.81;;;17.48;78.04
52249;BME280;38541;48.130;8.378;2023-07-30T00:48:45;92573.84;;;17.55;77.91
52249;BME280;38541;48.130;8.378;2023-07-30T00:51:13;92576.47;;;17.46;77.62
52249;BME280;38541;48.130;8.378;2023-07-30T00:53:40;92568.03;;;17.44;77.47
52249;BME280;38541;48.130;8.378;2023-07-30T00:56:06;92577.25;;;17.47;77.33
52249;BME280;38541;48.130;8.378;2023-07-30T00:58:33;92580.38;;;17.49;77.40
52249;BME280;38541;48.130;8.378;2023-07-30T01:01:00;92586.31;;;17.46;77.40
52249;BME280;38541;48.130;8.378;2023-07-30T01:03:27;92591.31;;;17.47;77.40
52249;BME280;38541;48.130;8.378;2023-07-30T01:05:53;92580.66;;;17.38;77.54
52249;BME280;38541;48.130;8.378;2023-07-30T01:08:20;92594.41;;;17.40;77.84
52249;BME280;38541;48.130;8.378;2023-07-30T01:10:47;92578.00;;;17.38;77.26
52249;BME280;38541;48.130;8.378;2023-07-30T01:13:15;92585.03;;;17.34;77.28
52249;BME280;38541;48.130;8.378;2023-07-30T01:15:42;92578.13;;;17.33;77.12
52249;BME280;38541;48.130;8.378;2023-07-30T01:18:09;92578.13;;;17.33;77.30
52249;BME280;38541;48.130;8.378;2023-07-30T01:20:35;92572.22;;;17.36;77.24
52249;BME280;38541;48.130;8.378;2023-07-30T01:23:02;92575.19;;;17.35;77.11
52249;BME280;38541;48.130;8.378;2023-07-30T01:25:30;92578.47;;;17.40;76.92
52249;BME280;38541;48.130;8.378;2023-07-30T01:28:01;92568.50;;;17.46;77.03
52249;BME280;38541;48.130;8.378;2023-07-30T01:30:32;92575.06;;;17.49;77.06
52249;BME280;38541;48.130;8.378;2023-07-30T01:33:01;92579.28;;;17.50;76.99
52249;BME280;38541;48.130;8.378;2023-07-30T01:35:28;92581.78;;;17.46;77.42
52249;BME280;38541;48.130;8.378;2023-07-30T01:37:57;92587.38;;;17.45;77.19
52249;BME280;38541;48.130;8.378;2023-07-30T01:40:24;92593.00;;;17.43;77.01
52249;BME280;38541;48.130;8.378;2023-07-30T01:42:51;92594.88;;;17.43;77.03
52249;BME280;38541;48.130;8.378;2023-07-30T01:45:17;92593.94;;;17.38;77.07
52249;BME280;38541;48.130;8.378;2023-07-30T01:47:44;92585.63;;;17.31;76.43
52249;BME280;38541;48.130;8.378;2023-07-30T01:50:11;92584.84;;;17.31;76.34
52249;BME280;38541;48.130;8.378;2023-07-30T01:52:37;92593.28;;;17.33;76.20
52249;BME280;38541;48.130;8.378;2023-07-30T01:55:04;92588.47;;;17.35;77.00
52249;BME280;38541;48.130;8.378;2023-07-30T01:57:31;92582.84;;;17.36;77.06
52249;BME280;38541;48.130;8.378;2023-07-30T01:59:57;92575.97;;;17.35;77.24
52249;BME280;38541;48.130;8.378;2023-07-30T02:02:24;92572.66;;;17.30;77.02
52249;BME280;38541;48.130;8.378;2023-07-30T02:04:51;92569.38;;;17.24;76.76
52249;BME280;38541;48.130;8.378;2023-07-30T02:07:17;92573.13;;;17.23;76.82
52249;BME280;38541;48.130;8.378;2023-07-30T02:09:44;92573.41;;;17.21;77.25
52249;BME280;38541;48.130;8.378;2023-07-30T02:12:10;92577.78;;;17.17;76.61
52249;BME280;38541;48.130;8.378;2023-07-30T02:14:37;92582.09;;;17.04;76.84
52249;BME280;38541;48.130;8.378;2023-07-30T02:17:04;92581.97;;;17.09;77.23
52249;BME280;38541;48.130;8.378;2023-07-30T02:19:30;92574.94;;;17.14;77.19
52249;BME280;38541;48.130;8.378;2023-07-30T02:21:57;92585.28;;;17.15;77.01
52249;BME280;38541;48.130;8.378;2023-07-30T02:24:23;92587.88;;;17.06;77.62
52249;BME280;38541;48.130;8.378;2023-07-30T02:26:50;92592.06;;;16.99;77.88
52249;BME280;38541;48.130;8.378;2023-07-30T02:29:17;92588.31;;;17.00;77.88
52249;BME280;38541;48.130;8.378;2023-07-30T02:31:43;92584.91;;;16.99;78.10
52249;BME280;38541;48.130;8.378;2023-07-30T02:34:10;92589.41;;;16.99;78.33
52249;BME280;38541;48.130;8.378;2023-07-30T02:36:36;92585.72;;;16.86;77.60
52249;BME280;38541;48.130;8.378;2023-07-30T02:39:03;92587.31;;;16.87;77.93
52249;BME280;38541;48.130;8.378;2023-07-30T02:41:29;92591.81;;;16.86;79.04
52249;BME280;38541;48.130;8.378;2023-07-30T02:43:56;92589.63;;;16.79;79.02
52249;BME280;38541;48.130;8.378;2023-07-30T02:46:22;92583.22;;;16.80;79.35
52249;BME280;38541;48.130;8.378;2023-07-30T02:48:48;92589.63;;;16.79;79.86
52249;BME280;38541;48.130;8.378;2023-07-30T02:51:15;92585.41;;;16.78;79.31
52249;BME280;38541;48.130;8.378;2023-07-30T02:53:45;92588.06;;;16.78;79.42
52249;BME280;38541;48.130;8.378;2023-07-30T02:56:11;92575.38;;;16.75;79.14
52249;BME280;38541;48.130;8.378;2023-07-30T02:58:37;92585.97;;;16.75;79.43
52249;BME280;38541;48.130;8.378;2023-07-30T03:01:05;92579.13;;;16.74;79.54
52249;BME280;38541;48.130;8.378;2023-07-30T03:03:33;92583.47;;;16.70;80.06
52249;BME280;38541;48.130;8.378;2023-07-30T03:06:00;92572.25;;;16.73;80.17
52249;BME280;38541;48.130;8.378;2023-07-30T03:08:27;92575.38;;;16.75;80.39
52249;BME280;38541;48.130;8.378;2023-07-30T03:10:53;92570.06;;;16.75;80.34
52249;BME280;38541;48.130;8.378;2023-07-30T03:13:19;92573.03;;;16.74;80.60
52249;BME280;38541;48.130;8.378;2023-07-30T03:15:47;92568.50;;;16.74;80.87
52249;BME280;38541;48.130;8.378;2023-07-30T03:18:14;92566.00;;;16.69;80.22
52249;BME280;38541;48.130;8.378;2023-07-30T03:20:41;92566.59;;;16.66;80.26
52249;BME280;38541;48.130;8.378;2023-07-30T03:23:08;92562.84;;;16.67;80.64
52249;BME280;38541;48.130;8.378;2023-07-30T03:25:35;92569.72;;;16.68;80.56
52249;BME280;38541;48.130;8.378;2023-07-30T03:28:01;92575.81;;;16.68;80.59
52249;BME280;38541;48.130;8.378;2023-07-30T03:30:28;92582.19;;;16.67;80.76
52249;BME280;38541;48.130;8.378;2023-07-30T03:32:54;92579.53;;;16.59;80.66
52249;BME280;38541;48.130;8.378;2023-07-30T03:35:21;92577.44;;;16.55;81.08
52249;BME280;38541;48.130;8.378;2023-07-30T03:37:47;92578.44;;;16.60;81.05
52249;BME280;38541;48.130;8.378;2023-07-30T03:40:13;92577.34;;;16.61;80.44
52249;BME280;38541;48.130;8.378;2023-07-30T03:42:40;92587.63;;;16.62;80.85
52249;BME280;38541;48.130;8.378;2023-07-30T03:45:07;92580.75;;;16.61;80.35
52249;BME280;38541;48.130;8.378;2023-07-30T03:47:33;92580.75;;;16.61;80.66
52249;BME280;38541;48.130;8.378;2023-07-30T03:50:00;92588.91;;;16.65;80.69
52249;BME280;38541;48.130;8.378;2023-07-30T03:52:26;92591.97;;;16.58;79.96
52249;BME280;38541;48.130;8.378;2023-07-30T03:54:53;92585.88;;;16.58;80.37
52249;BME280;38541;48.130;8.378;2023-07-30T03:57:20;92583.84;;;16.54;79.90
52249;BME280;38541;48.130;8.378;2023-07-30T03:59:46;92590.59;;;16.61;80.12
52249;BME280;38541;48.130;8.378;2023-07-30T04:02:13;92585.31;;;16.61;80.19
52249;BME280;38541;48.130;8.378;2023-07-30T04:04:42;92574.50;;;16.57;80.07
52249;BME280;38541;48.130;8.378;2023-07-30T04:07:12;92587.47;;;16.59;79.52
52249;BME280;38541;48.130;8.378;2023-07-30T04:09:39;92592.41;;;16.51;79.80
52249;BME280;38541;48.130;8.378;2023-07-30T04:12:05;92593.81;;;16.49;79.87
52249;BME280;38541;48.130;8.378;2023-07-30T04:14:32;92597.41;;;16.53;80.09
52249;BME280;38541;48.130;8.378;2023-07-30T04:16:58;92600.06;;;16.53;79.93
52249;BME280;38541;48.130;8.378;2023-07-30T04:19:25;92605.72;;;16.60;80.01
52249;BME280;38541;48.130;8.378;2023-07-30T04:21:51;92603.72;;;16.66;79.54
52249;BME280;38541;48.130;8.378;2023-07-30T04:24:18;92620.00;;;16.73;79.48
52249;BME280;38541;48.130;8.378;2023-07-30T04:26:44;92618.81;;;16.79;79.13
52249;BME280;38541;48.130;8.378;2023-07-30T04:29:11;92618.19;;;16.82;78.76
52249;BME280;38541;48.130;8.378;2023-07-30T04:31:39;92626.00;;;16.88;78.54
52249;BME280;38541;48.130;8.378;2023-07-30T04:34:06;92619.28;;;16.81;78.17
52249;BME280;38541;48.130;8.378;2023-07-30T04:36:33;92614.31;;;16.89;78.07
52249;BME280;38541;48.130;8.378;2023-07-30T04:38:59;92618.41;;;16.95;78.03
52249;BME280;38541;48.130;8.378;2023-07-30T04:41:30;92613.16;;;17.04;77.60
52249;BME280;38541;48.130;8.378;2023-07-30T04:44:01;92621.78;;;17.09;77.55
52249;BME280;38541;48.130;8.378;2023-07-30T04:46:28;92616.50;;;17.18;77.42
52249;BME280;38541;48.130;8.378;2023-07-30T04:48:57;92607.31;;;17.16;76.98
52249;BME280;38541;48.130;8.378;2023-07-30T04:51:23;92611.53;;;17.17;77.01
52249;BME280;38541;48.130;8.378;2023-07-30T04:53:50;92609.91;;;17.07;77.02
52249;BME280;38541;48.130;8.378;2023-07-30T04:56:16;92609.84;;;16.98;77.38
52249;BME280;38541;48.130;8.378;2023-07-30T04:58:43;92613.22;;;16.90;77.45
52249;BME280;38541;48.130;8.378;2023-07-30T05:01:09;92619.31;;;16.90;77.31
52249;BME280;38541;48.130;8.378;2023-07-30T05:03:36;92614.78;;;16.91;77.64
52249;BME280;38541;48.130;8.378;2023-07-30T05:06:03;92626.34;;;16.95;77.37
52249;BME280;38541;48.130;8.378;2023-07-30T05:08:29;92617.81;;;16.98;77.17
52249;BME280;38541;48.130;8.378;2023-07-30T05:10:56;92620.66;;;17.02;76.75
52249;BME280;38541;48.130;8.378;2023-07-30T05:13:22;92628.66;;;17.10;76.89
52249;BME280;38541;48.130;8.378;2023-07-30T05:15:49;92627.09;;;17.09;76.57
52249;BME280;38541;48.130;8.378;2023-07-30T05:18:15;92623.34;;;17.10;76.04
52249;BME280;38541;48.130;8.378;2023-07-30T05:20:42;92626.47;;;17.13;75.73
52249;BME280;38541;48.130;8.378;2023-07-30T05:23:08;92625.75;;;17.21;75.89
52249;BME280;38541;48.130;8.378;2023-07-30T05:25:34;92632.47;;;17.27;75.17
52249;BME280;38541;48.130;8.378;2023-07-30T05:28:02;92629.13;;;17.44;74.95
52249;BME280;38541;48.130;8.378;2023-07-30T05:30:28;92634.09;;;17.46;74.31
52249;BME280;38541;48.130;8.378;2023-07-30T05:32:55;92638.94;;;17.44;74.75
52249;BME280;38541;48.130;8.378;2023-07-30T05:35:21;92647.06;;;17.38;74.58
52249;BME280;38541;48.130;8.378;2023-07-30T05:37:50;92636.91;;;17.40;74.44
52249;BME280;38541;48.130;8.378;2023-07-30T05:40:16;92625.00;;;17.38;74.38
52249;BME280;38541;48.130;8.378;2023-07-30T05:42:43;92623.81;;;17.44;74.30
52249;BME280;38541;48.130;8.378;2023-07-30T05:45:09;92645.97;;;17.39;74.26
52249;BME280;38541;48.130;8.378;2023-07-30T05:47:36;92643.31;;;17.39;74.33
52249;BME280;38541;48.130;8.378;2023-07-30T05:50:02;92651.13;;;17.45;74.87
52249;BME280;38541;48.130;8.378;2023-07-30T05:52:29;92639.88;;;17.48;73.60
52249;BME280;38541;48.130;8.378;2023-07-30T05:54:55;92639.41;;;17.46;73.45
52249;BME280;38541;48.130;8.378;2023-07-30T05:57:22;92645.16;;;17.39;73.88
52249;BME280;38541;48.130;8.378;2023-07-30T05:59:48;92652.88;;;17.49;74.02
52249;BME280;38541;48.130;8.378;2023-07-30T06:02:15;92643.84;;;17.59;73.03
52249;BME280;38541;48.130;8.378;2023-07-30T06:04:42;92660.09;;;17.66;72.76
52249;BME280;38541;48.130;8.378;2023-07-30T06:07:08;92655.44;;;17.72;71.79
52249;BME280;38541;48.130;8.378;2023-07-30T06:09:34;92660.28;;;17.70;72.02
52249;BME280;38541;48.130;8.378;2023-07-30T06:12:01;92669.03;;;17.71;71.97
52249;BME280;38541;48.130;8.378;2023-07-30T06:14:27;92662.63;;;17.72;71.90
52249;BME280;38541;48.130;8.378;2023-07-30T06:16:54;92651.41;;;17.75;71.65
52249;BME280;38541;48.130;8.378;2023-07-30T06:19:21;92667.97;;;17.80;70.45
52249;BME280;38541;48.130;8.378;2023-07-30T06:21:47;92660.16;;;17.84;71.23
52249;BME280;38541;48.130;8.378;2023-07-30T06:24:14;92667.91;;;18.03;71.97
52249;BME280;38541;48.130;8.378;2023-07-30T06:26:40;92675.91;;;18.12;71.20
52249;BME280;38541;48.130;8.378;2023-07-30T06:29:07;92681.00;;;18.00;70.75
52249;BME280;38541;48.130;8.378;2023-07-30T06:31:33;92679.25;;;17.86;71.43
52249;BME280;38541;48.130;8.378;2023-07-30T06:34:00;92674.09;;;17.90;71.50
52249;BME280;38541;48.130;8.378;2023-07-30T06:36:27;92683.94;;;17.89;71.76
52249;BME280;38541;48.130;8.378;2023-07-30T06:38:53;92684.56;;;17.95;71.69
52249;BME280;38541;48.130;8.378;2023-07-30T06:41:20;92684.41;;;18.00;71.29
52249;BME280;38541;48.130;8.378;2023-07-30T06:43:47;92682.44;;;18.06;71.21
52249;BME280;38541;48.130;8.378;2023-07-30T06:46:13;92693.41;;;18.04;69.90
52249;BME280;38541;48.130;8.378;2023-07-30T06:48:40;92693.69;;;18.03;70.22
52249;BME280;38541;48.130;8.378;2023-07-30T06:51:10;92693.81;;;17.97;69.88
52249;BME280;38541;48.130;8.378;2023-07-30T06:53:37;92693.97;;;17.92;69.75
52249;BME280;38541;48.130;8.378;2023-07-30T06:56:03;92696.44;;;17.80;68.49
52249;BME280;38541;48.130;8.378;2023-07-30T06:58:30;92698.94;;;17.85;67.90
52249;BME280;38541;48.130;8.378;2023-07-30T07:00:56;92681.44;;;17.93;68.13
52249;BME280;38541;48.130;8.378;2023-07-30T07:03:23;92682.44;;;18.06;68.36
52249;BME280;38541;48.130;8.378;2023-07-30T07:05:56;92672.75;;;18.28;68.38
52249;BME280;38541;48.130;8.378;2023-07-30T07:08:23;92683.09;;;18.38;66.80
52249;BME280;38541;48.130;8.378;2023-07-30T07:10:49;92698.63;;;18.45;65.69
52249;BME280;38541;48.130;8.378;2023-07-30T07:13:16;92697.19;;;18.47;65.32
52249;BME280;38541;48.130;8.378;2023-07-30T07:15:43;92695.97;;;18.53;63.77
52249;BME280;38541;48.130;8.378;2023-07-30T07:18:10;92695.50;;;18.60;64.22
52249;BME280;38541;48.130;8.378;2023-07-30T07:20:37;92696.13;;;18.48;63.81
52249;BME280;38541;48.130;8.378;2023-07-30T07:23:04;92701.44;;;18.48;63.89
52249;BME280;38541;48.130;8.378;2023-07-30T07:25:30;92694.22;;;18.40;63.95
52249;BME280;38541;48.130;8.378;2023-07-30T07:27:57;92687.19;;;18.44;64.05
52249;BME280;38541;48.130;8.378;2023-07-30T07:30:23;92700.19;;;18.54;62.92
52249;BME280;38541;48.130;8.378;2023-07-30T07:32:50;92698.63;;;18.45;63.58
52249;BME280;38541;48.130;8.378;2023-07-30T07:35:19;92700.00;;;18.42;63.75
52249;BME280;38541;48.130;8.378;2023-07-30T07:37:46;92693.75;;;18.56;64.33
52249;BME280;38541;48.130;8.378;2023-07-30T07:40:13;92706.13;;;18.78;64.12
52249;BME280;38541;48.130;8.378;2023-07-30T07:42:39;92695.31;;;18.74;62.37
52249;BME280;38541;48.130;8.378;2023-07-30T07:45:07;92708.34;;;18.67;61.77
52249;BME280;38541;48.130;8.378;2023-07-30T07:47:33;92697.81;;;18.62;62.37
52249;BME280;38541;48.130;8.378;2023-07-30T07:50:00;92701.56;;;18.87;62.25
52249;BME280;38541;48.130;8.378;2023-07-30T07:52:26;92715.19;;;19.03;61.46
52249;BME280;38541;48.130;8.378;2023-07-30T07:54:53;92711.13;;;18.97;60.47
52249;BME280;38541;48.130;8.378;2023-07-30T07:57:19;92727.72;;;18.85;61.32
52249;BME280;38541;48.130;8.378;2023-07-30T07:59:46;92708.63;;;18.74;60.67
52249;BME280;38541;48.130;8.378;2023-07-30T08:02:13;92705.03;;;18.70;61.19
52249;BME280;38541;48.130;8.378;2023-07-30T08:04:40;92714.25;;;18.64;58.78
52249;BME280;38541;48.130;8.378;2023-07-30T08:07:07;92707.53;;;18.58;59.75
52249;BME280;38541;48.130;8.378;2023-07-30T08:09:33;92704.41;;;18.56;60.38
52249;BME280;38541;48.130;8.378;2023-07-30T08:12:00;92703.31;;;18.65;59.13
52249;BME280;38541;48.130;8.378;2023-07-30T08:14:27;92708.16;;;18.72;60.37
52249;BME280;38541;48.130;8.378;2023-07-30T08:16:53;92712.84;;;18.75;59.54
52249;BME280;38541;48.130;8.378;2023-07-30T08:19:20;92709.41;;;18.66;59.59
52249;BME280;38541;48.130;8.378;2023-07-30T08:21:46;92722.25;;;18.81;58.48
52249;BME280;38541;48.130;8.378;2023-07-30T08:24:13;92709.25;;;18.89;58.47
52249;BME280;38541;48.130;8.378;2023-07-30T08:26:39;92711.28;;;18.92;58.43
52249;BME280;38541;48.130;8.378;2023-07-30T08:29:06;92726.00;;;18.98;56.66
52249;BME280;38541;48.130;8.378;2023-07-30T08:31:34;92717.38;;;18.92;57.14
52249;BME280;38541;48.130;8.378;2023-07-30T08:34:01;92727.41;;;19.04;55.16
52249;BME280;38541;48.130;8.378;2023-07-30T08:36:28;92714.59;;;19.06;56.61
52249;BME280;38541;48.130;8.378;2023-07-30T08:38:54;92720.38;;;19.17;55.27
52249;BME280;38541;48.130;8.378;2023-07-30T08:41:21;92722.56;;;19.15;55.24
52249;BME280;38541;48.130;8.378;2023-07-30T08:43:47;92721.94;;;19.09;55.43
52249;BME280;38541;48.130;8.378;2023-07-30T08:46:15;92708.16;;;19.07;54.68
52249;BME280;38541;48.130;8.378;2023-07-30T08:48:42;92708.47;;;19.06;54.31
52249;BME280;38541;48.130;8.378;2023-07-30T08:51:12;92713.50;;;19.07;55.40
52249;BME280;38541;48.130;8.378;2023-07-30T08:53:40;92719.28;;;19.01;54.28
52249;BME280;38541;48.130;8.378;2023-07-30T08:56:09;92709.13;;;19.03;54.04
52249;BME280;38541;48.130;8.378;2023-07-30T08:58:36;92711.13;;;19.15;55.12
52249;BME280;38541;48.130;8.378;2023-07-30T09:01:08;92718.31;;;19.23;53.44
52249;BME280;38541;48.130;8.378;2023-07-30T09:03:38;92723.31;;;19.24;51.78
52249;BME280;38541;48.130;8.378;2023-07-30T09:06:06;92723.81;;;19.18;52.11
52249;BME280;38541;48.130;8.378;2023-07-30T09:08:32;92715.19;;;19.21;53.17
52249;BME280;38541;48.130;8.378;2023-07-30T09:11:10;92725.84;;;19.12;52.37
52249;BME280;38541;48.130;8.378;2023-07-30T09:13:38;92722.88;;;19.05;51.74
52249;BME280;38541;48.130;8.378;2023-07-30T09:16:09;92724.44;;;19.15;53.29
52249;BME280;38541;48.130;8.378;2023-07-30T09:18:41;92738.19;;;19.34;52.39
52249;BME280;38541;48.130;8.378;2023-07-30T09:21:10;92741.50;;;19.31;52.11
52249;BME280;38541;48.130;8.378;2023-07-30T09:23:44;92719.72;;;19.29;51.96
52249;BME280;38541;48.130;8.378;2023-07-30T09:26:12;92729.22;;;19.48;53.24
52249;BME280;38541;48.130;8.378;2023-07-30T09:28:41;92763.88;;;19.48;49.93
52249;BME280;38541;48.130;8.378;2023-07-30T09:31:08;92741.31;;;19.36;50.84
52249;BME280;38541;48.130;8.378;2023-07-30T09:33:48;92763.28;;;19.33;51.66
52249;BME280;38541;48.130;8.378;2023-07-30T09:36:15;92747.47;;;19.10;53.33
52249;BME280;38541;48.130;8.378;2023-07-30T09:38:44;92755.94;;;19.04;52.84
52249;BME280;38541;48.130;8.378;2023-07-30T09:41:12;92755.16;;;19.03;54.75
52249;BME280;38541;48.130;8.378;2023-07-30T09:43:38;92764.88;;;18.99;54.40
52249;BME280;38541;48.130;8.378;2023-07-30T09:46:06;92762.50;;;18.80;57.32
52249;BME280;38541;48.130;8.378;2023-07-30T09:48:34;92761.88;;;18.74;58.47
52249;BME280;38541;48.130;8.378;2023-07-30T09:51:02;92760.47;;;18.68;59.03
52249;BME280;38541;48.130;8.378;2023-07-30T09:53:30;92761.06;;;18.74;59.47
52249;BME280;38541;48.130;8.378;2023-07-30T09:56:04;92775.34;;;18.87;59.63
52249;BME280;38541;48.130;8.378;2023-07-30T09:58:32;92772.50;;;18.83;60.11
52249;BME280;38541;48.130;8.378;2023-07-30T10:01:00;92762.66;;;19.01;60.10
52249;BME280;38541;48.130;8.378;2023-07-30T10:03:27;92774.28;;;19.05;60.07
52249;BME280;38541;48.130;8.378;2023-07-30T10:05:59;92771.09;;;19.38;59.94
52249;BME280;38541;48.130;8.378;2023-07-30T10:08:31;92780.47;;;19.62;59.81
52249;BME280;38541;48.130;8.378;2023-07-30T10:11:03;92773.50;;;19.79;59.23
52249;BME280;38541;48.130;8.378;2023-07-30T10:13:31;92759.03;;;19.98;57.35
52249;BME280;38541;48.130;8.378;2023-07-30T10:15:58;92778.34;;;19.94;54.35
52249;BME280;38541;48.130;8.378;2023-07-30T10:18:41;92768.16;;;19.79;52.63
52249;BME280;38541;48.130;8.378;2023-07-30T10:21:09;92774.00;;;19.72;54.35
52249;BME280;38541;48.130;8.378;2023-07-30T10:23:46;92783.88;;;19.72;52.34
52249;BME280;38541;48.130;8.378;2023-07-30T10:26:12;92769.56;;;19.85;51.71
52249;BME280;38541;48.130;8.378;2023-07-30T10:28:39;92780.91;;;20.21;52.74
52249;BME280;38541;48.130;8.378;2023-07-30T10:31:09;92789.22;;;20.49;51.46
52249;BME280;38541;48.130;8.378;2023-07-30T10:36:10;92786.66;;;20.32;49.77
52249;BME280;38541;48.130;8.378;2023-07-30T10:38:38;92787.00;;;20.51;51.39
52249;BME280;38541;48.130;8.378;2023-07-30T10:41:06;92786.47;;;20.37;49.76
52249;BME280;38541;48.130;8.378;2023-07-30T10:43:43;92789.78;;;20.34;49.03
52249;BME280;38541;48.130;8.378;2023-07-30T10:46:11;92791.94;;;20.10;48.62
52249;BME280;38541;48.130;8.378;2023-07-30T10:48:39;92823.13;;;20.19;48.97
52249;BME280;38541;48.130;8.378;2023-07-30T10:51:12;92788.22;;;20.33;48.93
52249;BME280;38541;48.130;8.378;2023-07-30T10:53:42;92784.94;;;20.87;46.33
52249;BME280;38541;48.130;8.378;2023-07-30T10:56:10;92787.69;;;20.70;46.33
52249;BME280;38541;48.130;8.378;2023-07-30T10:58:37;92838.91;;;20.33;45.89
52249;BME280;38541;48.130;8.378;2023-07-30T11:01:07;92787.03;;;20.21;49.63
52249;BME280;38541;48.130;8.378;2023-07-30T11:03:35;92791.78;;;20.67;49.14
52249;BME280;38541;48.130;8.378;2023-07-30T11:06:02;92788.47;;;20.70;48.68
52249;BME280;38541;48.130;8.378;2023-07-30T11:08:44;92788.50;;;21.13;47.45
52249;BME280;38541;48.130;8.378;2023-07-30T11:11:11;92783.66;;;21.27;50.32
52249;BME280;38541;48.130;8.378;2023-07-30T11:13:39;92783.78;;;21.64;51.57
52249;BME280;38541;48.130;8.378;2023-07-30T11:16:08;92787.00;;;21.24;53.71
52249;BME280;38541;48.130;8.378;2023-07-30T11:18:37;92772.31;;;21.30;54.65
52249;BME280;38541;48.130;8.378;2023-07-30T11:21:08;92779.72;;;21.46;54.77
52249;BME280;38541;48.130;8.378;2023-07-30T11:23:36;92788.63;;;21.16;55.50
52249;BME280;38541;48.130;8.378;2023-07-30T11:26:04;92796.31;;;20.75;56.15
52249;BME280;38541;48.130;8.378;2023-07-30T11:28:33;92798.88;;;20.63;56.29
52249;BME280;38541;48.130;8.378;2023-07-30T11:31:08;92806.09;;;20.41;55.94
52249;BME280;38541;48.130;8.378;2023-07-30T11:33:36;92801.16;;;21.03;55.28
52249;BME280;38541;48.130;8.378;2023-07-30T11:36:06;92815.34;;;21.16;54.47
52249;BME280;38541;48.130;8.378;2023-07-30T11:38:34;92814.97;;;21.05;54.51
52249;BME280;38541;48.130;8.378;2023-07-30T11:41:01;92818.16;;;20.99;55.53
52249;BME280;38541;48.130;8.378;2023-07-30T11:43:28;92817.38;;;20.47;54.90
52249;BME280;38541;48.130;8.378;2023-07-30T11:46:06;92824.41;;;20.13;56.09
52249;BME280;38541;48.130;8.378;2023-07-30T11:48:34;92831.81;;;20.07;56.37
52249;BME280;38541;48.130;8.378;2023-07-30T11:51:02;92826.19;;;20.00;57.01
52249;BME280;38541;48.130;8.378;2023-07-30T11:56:20;92834.28;;;20.12;57.53
52249;BME280;38541;48.130;8.378;2023-07-30T11:58:49;92822.97;;;20.15;57.54
52249;BME280;38541;48.130;8.378;2023-07-30T12:01:16;92819.19;;;20.16;57.29
52249;BME280;38541;48.130;8.378;2023-07-30T12:03:43;92815.78;;;20.07;57.23
52249;BME280;38541;48.130;8.378;2023-07-30T12:06:11;92826.03;;;19.96;57.71
52249;BME280;38541;48.130;8.378;2023-07-30T12:08:38;92834.81;;;19.70;58.75
52249;BME280;38541;48.130;8.378;2023-07-30T12:11:08;92837.69;;;19.47;59.04
52249;BME280;38541;48.130;8.378;2023-07-30T12:13:43;92841.00;;;19.44;58.72
52249;BME280;38541;48.130;8.378;2023-07-30T12:16:12;92849.44;;;19.37;59.36
52249;BME280;38541;48.130;8.378;2023-07-30T12:18:39;92855.25;;;19.31;59.51
52249;BME280;38541;48.130;8.378;2023-07-30T12:21:07;92853.53;;;19.26;59.94
52249;BME280;38541;48.130;8.378;2023-07-30T12:23:34;92859.00;;;19.38;58.67
52249;BME280;38541;48.130;8.378;2023-07-30T12:26:02;92847.56;;;19.47;59.03
52249;BME280;38541;48.130;8.378;2023-07-30T12:28:32;92848.16;;;19.70;58.42
52249;BME280;38541;48.130;8.378;2023-07-30T12:31:00;92838.78;;;19.55;58.17
52249;BME280;38541;48.130;8.378;2023-07-30T12:33:26;92832.81;;;19.58;58.58
52249;BME280;38541;48.130;8.378;2023-07-30T12:35:53;92840.31;;;19.91;58.49
52249;BME280;38541;48.130;8.378;2023-07-30T12:38:20;92823.63;;;20.12;56.45
52249;BME280;38541;48.130;8.378;2023-07-30T12:40:46;92833.88;;;19.75;56.70
52249;BME280;38541;48.130;8.378;2023-07-30T12:43:13;92822.00;;;19.72;58.02
52249;BME280;38541;48.130;8.378;2023-07-30T12:45:39;92827.78;;;19.74;57.96
52249;BME280;38541;48.130;8.378;2023-07-30T12:48:06;92831.56;;;19.64;58.64
52249;BME280;38541;48.130;8.378;2023-07-30T12:50:34;92841.91;;;19.57;58.43
52249;BME280;38541;48.130;8.378;2023-07-30T12:53:00;92831.56;;;19.64;58.76
52249;BME280;38541;48.130;8.378;2023-07-30T12:55:27;92829.19;;;19.72;58.47
52249;BME280;38541;48.130;8.378;2023-07-30T12:57:53;92824.47;;;19.77;58.48
52249;BME280;38541;48.130;8.378;2023-07-30T13:00:20;92840.78;;;19.67;58.93
52249;BME280;38541;48.130;8.378;2023-07-30T13:02:46;92852.09;;;19.55;58.45
52249;BME280;38541;48.130;8.378;2023-07-30T13:05:13;92843.50;;;19.41;58.98
52249;BME280;38541;48.130;8.378;2023-07-30T13:07:42;92846.16;;;19.49;59.19